AAL274 KLAX-KJFK
Flight info
| Callsign | AAL274 |
|---|---|
| Flight time | N/A |
| Altitude | 39000 |
| Route | OSHNN1 BEALE J146 DVC KD60A KP66G IOW POSTS DAFLU J70 JHW Q476 WLKES PUCKY1 |
| Aircraft | B772/H-SDE1E3FGHIJ3J5M1P2RWXYZ/LB1D1 |
Departure
| Time | 2026-05-04 20:06 |
|---|---|
| Airport | Los Angeles International Airport (KLAX) |
Arrival
| Time | N/A |
|---|---|
| Airport | John F. Kennedy International Airport (KJFK) |
| Time | Latitude | Longitude | Altitude | Speed | Heading |
|---|---|---|---|---|---|
| 2026-05-04 18:51 | 33.94103 | -118.40745 | 132 ft | 0 kts | 70° |
| 2026-05-04 19:47 | 33.94101 | -118.40751 | 132 ft | 2 kts | 69° |
| 2026-05-04 19:48 | 33.94096 | -118.40768 | 132 ft | 2 kts | 69° |
| 2026-05-04 19:48 | 33.94091 | -118.40784 | 132 ft | 2 kts | 70° |
| 2026-05-04 19:48 | 33.94086 | -118.40802 | 132 ft | 2 kts | 76° |
| 2026-05-04 19:48 | 33.94085 | -118.40820 | 132 ft | 2 kts | 98° |
| 2026-05-04 19:49 | 33.94088 | -118.40837 | 132 ft | 2 kts | 115° |
| 2026-05-04 19:49 | 33.94093 | -118.40847 | 132 ft | 0 kts | 121° |
| 2026-05-04 19:49 | 33.94083 | -118.40834 | 132 ft | 3 kts | 145° |
| 2026-05-04 19:49 | 33.94054 | -118.40829 | 133 ft | 6 kts | 175° |
| 2026-05-04 19:50 | 33.94022 | -118.40824 | 133 ft | 2 kts | 173° |
| 2026-05-04 19:50 | 33.94018 | -118.40823 | 133 ft | 0 kts | 173° |
| 2026-05-04 19:53 | 33.93993 | -118.40820 | 133 ft | 12 kts | 173° |
| 2026-05-04 19:53 | 33.93899 | -118.40789 | 133 ft | 14 kts | 136° |
| 2026-05-04 19:53 | 33.93824 | -118.40706 | 133 ft | 14 kts | 118° |
| 2026-05-04 19:54 | 33.93820 | -118.40581 | 132 ft | 15 kts | 83° |
| 2026-05-04 19:54 | 33.93833 | -118.40447 | 131 ft | 16 kts | 83° |
| 2026-05-04 19:54 | 33.93847 | -118.40301 | 129 ft | 17 kts | 83° |
| 2026-05-04 19:54 | 33.93863 | -118.40147 | 127 ft | 19 kts | 83° |
| 2026-05-04 19:55 | 33.93879 | -118.39984 | 125 ft | 20 kts | 83° |
| 2026-05-04 19:55 | 33.93898 | -118.39811 | 122 ft | 21 kts | 83° |
| 2026-05-04 19:55 | 33.93917 | -118.39632 | 120 ft | 22 kts | 84° |
| 2026-05-04 19:55 | 33.93935 | -118.39445 | 117 ft | 22 kts | 83° |
| 2026-05-04 19:56 | 33.93954 | -118.39251 | 116 ft | 23 kts | 83° |
| 2026-05-04 19:56 | 33.93975 | -118.39056 | 114 ft | 23 kts | 83° |
| 2026-05-04 19:56 | 33.93995 | -118.38857 | 113 ft | 23 kts | 82° |
| 2026-05-04 19:56 | 33.94015 | -118.38660 | 112 ft | 23 kts | 83° |
| 2026-05-04 19:57 | 33.94034 | -118.38460 | 111 ft | 23 kts | 84° |
| 2026-05-04 19:57 | 33.94056 | -118.38264 | 110 ft | 23 kts | 83° |
| 2026-05-04 19:57 | 33.94070 | -118.38113 | 110 ft | 12 kts | 82° |
| 2026-05-04 19:57 | 33.94076 | -118.38038 | 109 ft | 6 kts | 104° |
| 2026-05-04 19:58 | 33.94075 | -118.38032 | 109 ft | 0 kts | 112° |
| 2026-05-04 20:02 | 33.94077 | -118.38020 | 109 ft | 5 kts | 59° |
| 2026-05-04 20:02 | 33.94109 | -118.38010 | 109 ft | 0 kts | 351° |
| 2026-05-04 20:02 | 33.94112 | -118.38033 | 109 ft | 5 kts | 232° |
| 2026-05-04 20:03 | 33.94088 | -118.38037 | 109 ft | 2 kts | 149° |
| 2026-05-04 20:03 | 33.94084 | -118.38032 | 109 ft | 0 kts | 139° |
| 2026-05-04 20:04 | 33.94075 | -118.38023 | 109 ft | 6 kts | 142° |
| 2026-05-04 20:05 | 33.94007 | -118.38000 | 109 ft | 7 kts | 184° |
| 2026-05-04 20:05 | 33.93985 | -118.38032 | 109 ft | 4 kts | 259° |
| 2026-05-04 20:05 | 33.93980 | -118.38069 | 110 ft | 4 kts | 262° |
| 2026-05-04 20:05 | 33.93970 | -118.38160 | 110 ft | 28 kts | 262° |
| 2026-05-04 20:06 | 33.93913 | -118.38710 | 112 ft | 101 kts | 264° |
| 2026-05-04 20:06 | 33.93808 | -118.39775 | 203 ft | 146 kts | 262° |
| 2026-05-04 20:06 | 33.93695 | -118.40968 | 793 ft | 146 kts | 261° |
| 2026-05-04 20:06 | 33.93552 | -118.42195 | 1413 ft | 148 kts | 262° |
| 2026-05-04 20:07 | 33.93419 | -118.43483 | 1737 ft | 165 kts | 262° |
| 2026-05-04 20:07 | 33.93264 | -118.44920 | 2021 ft | 183 kts | 258° |
| 2026-05-04 20:07 | 33.92774 | -118.46426 | 2301 ft | 206 kts | 238° |
| 2026-05-04 20:07 | 33.91878 | -118.47849 | 2779 ft | 226 kts | 233° |
| 2026-05-04 20:08 | 33.90863 | -118.49379 | 3327 ft | 243 kts | 233° |
| 2026-05-04 20:08 | 33.89757 | -118.50963 | 4083 ft | 252 kts | 232° |
| 2026-05-04 20:08 | 33.88606 | -118.52588 | 4870 ft | 259 kts | 232° |
| 2026-05-04 20:08 | 33.87437 | -118.54225 | 5779 ft | 260 kts | 228° |
| 2026-05-04 20:09 | 33.85949 | -118.55454 | 6574 ft | 268 kts | 205° |
| 2026-05-04 20:09 | 33.84100 | -118.55835 | 7401 ft | 275 kts | 180° |
| 2026-05-04 20:09 | 33.82204 | -118.55478 | 8172 ft | 279 kts | 172° |
| 2026-05-04 20:09 | 33.80328 | -118.54965 | 8905 ft | 281 kts | 171° |
| 2026-05-04 20:10 | 33.78423 | -118.54437 | 9655 ft | 282 kts | 172° |
| 2026-05-04 20:10 | 33.76501 | -118.53913 | 10268 ft | 287 kts | 172° |
| 2026-05-04 20:10 | 33.74505 | -118.53198 | 10540 ft | 309 kts | 162° |
| 2026-05-04 20:10 | 33.72489 | -118.52029 | 10703 ft | 333 kts | 153° |
| 2026-05-04 20:11 | 33.70563 | -118.50353 | 10907 ft | 356 kts | 142° |
| 2026-05-04 20:11 | 33.68816 | -118.48120 | 11133 ft | 377 kts | 131° |
| 2026-05-04 20:11 | 33.67432 | -118.45396 | 11529 ft | 393 kts | 118° |
| 2026-05-04 20:11 | 33.66497 | -118.42317 | 12239 ft | 396 kts | 110° |
| 2026-05-04 20:12 | 33.65651 | -118.39130 | 12897 ft | 400 kts | 111° |
| 2026-05-04 20:12 | 33.64841 | -118.35956 | 13483 ft | 406 kts | 106° |
| 2026-05-04 20:12 | 33.64442 | -118.32562 | 14101 ft | 413 kts | 95° |
| 2026-05-04 20:12 | 33.64408 | -118.29131 | 14651 ft | 420 kts | 92° |
| 2026-05-04 20:13 | 33.64520 | -118.25607 | 15221 ft | 427 kts | 85° |
| 2026-05-04 20:13 | 33.65116 | -118.22081 | 15723 ft | 436 kts | 75° |
| 2026-05-04 20:13 | 33.66233 | -118.18668 | 16220 ft | 444 kts | 64° |
| 2026-05-04 20:13 | 33.67853 | -118.15482 | 16767 ft | 449 kts | 53° |
| 2026-05-04 20:14 | 33.69921 | -118.12661 | 17269 ft | 454 kts | 41° |
| 2026-05-04 20:14 | 33.72376 | -118.10286 | 17801 ft | 457 kts | 32° |
| 2026-05-04 20:14 | 33.75004 | -118.08073 | 18319 ft | 463 kts | 32° |
| 2026-05-04 20:14 | 33.77646 | -118.05829 | 18846 ft | 469 kts | 32° |
| 2026-05-04 20:15 | 33.80319 | -118.03521 | 19407 ft | 474 kts | 33° |
| 2026-05-04 20:15 | 33.82991 | -118.01184 | 19962 ft | 479 kts | 33° |
| 2026-05-04 20:15 | 33.85656 | -117.98834 | 20493 ft | 484 kts | 33° |
| 2026-05-04 20:15 | 33.88392 | -117.96407 | 20947 ft | 491 kts | 34° |
| 2026-05-04 20:16 | 33.91171 | -117.93928 | 21397 ft | 498 kts | 33° |
| 2026-05-04 20:16 | 33.93949 | -117.91415 | 21885 ft | 503 kts | 33° |
| 2026-05-04 20:16 | 33.96735 | -117.88879 | 22461 ft | 506 kts | 33° |
| 2026-05-04 20:16 | 33.99563 | -117.86300 | 22982 ft | 511 kts | 34° |
| 2026-05-04 20:17 | 34.02379 | -117.83728 | 23415 ft | 517 kts | 34° |
| 2026-05-04 20:17 | 34.05261 | -117.81092 | 23843 ft | 522 kts | 34° |
| 2026-05-04 20:17 | 34.08116 | -117.78348 | 24234 ft | 530 kts | 39° |
| 2026-05-04 20:17 | 34.10718 | -117.75121 | 24590 ft | 539 kts | 49° |
| 2026-05-04 20:18 | 34.13122 | -117.71618 | 24935 ft | 545 kts | 51° |
| 2026-05-04 20:18 | 34.15509 | -117.68066 | 25295 ft | 551 kts | 51° |
| 2026-05-04 20:18 | 34.17934 | -117.64452 | 25649 ft | 556 kts | 51° |
| 2026-05-04 20:18 | 34.20376 | -117.60812 | 25969 ft | 562 kts | 51° |
| 2026-05-04 20:19 | 34.22831 | -117.57150 | 26345 ft | 566 kts | 51° |
| 2026-05-04 20:19 | 34.25322 | -117.53436 | 26719 ft | 570 kts | 51° |
| 2026-05-04 20:19 | 34.27821 | -117.49707 | 27085 ft | 574 kts | 51° |
| 2026-05-04 20:19 | 34.30324 | -117.45966 | 27355 ft | 579 kts | 51° |
| 2026-05-04 20:20 | 34.32861 | -117.42173 | 27789 ft | 580 kts | 51° |
| 2026-05-04 20:20 | 34.35373 | -117.38418 | 28624 ft | 570 kts | 53° |
| 2026-05-04 20:20 | 34.37846 | -117.34715 | 29376 ft | 563 kts | 53° |
| 2026-05-04 20:20 | 34.40304 | -117.31030 | 29794 ft | 564 kts | 53° |
| 2026-05-04 20:21 | 34.42771 | -117.27327 | 29928 ft | 572 kts | 53° |
| 2026-05-04 20:21 | 34.45273 | -117.23567 | 30272 ft | 575 kts | 54° |
| 2026-05-04 20:21 | 34.50259 | -117.16067 | 30980 ft | 576 kts | 53° |
| 2026-05-04 20:22 | 34.55282 | -117.08511 | 30986 ft | 571 kts | 53° |
| 2026-05-04 20:22 | 34.60311 | -117.01193 | 30985 ft | 570 kts | 52° |
| 2026-05-04 20:23 | 34.65403 | -116.93784 | 30972 ft | 571 kts | 51° |
| 2026-05-04 20:23 | 34.70452 | -116.86416 | 30971 ft | 570 kts | 51° |
| 2026-05-04 20:24 | 34.75533 | -116.78982 | 30977 ft | 568 kts | 51° |
| 2026-05-04 20:24 | 34.80546 | -116.71628 | 30988 ft | 571 kts | 52° |
| 2026-05-04 20:25 | 34.85594 | -116.64206 | 30972 ft | 568 kts | 52° |
| 2026-05-04 20:25 | 34.90855 | -116.57064 | 30950 ft | 571 kts | 47° |
| 2026-05-04 20:26 | 34.96224 | -116.49946 | 30936 ft | 569 kts | 48° |
| 2026-05-04 20:26 | 35.01535 | -116.42866 | 30930 ft | 568 kts | 48° |
| 2026-05-04 20:27 | 35.06902 | -116.35680 | 30933 ft | 571 kts | 48° |
| 2026-05-04 20:27 | 35.12238 | -116.28512 | 30895 ft | 570 kts | 49° |
| 2026-05-04 20:28 | 35.17556 | -116.21347 | 30900 ft | 570 kts | 48° |
| 2026-05-04 20:28 | 35.22869 | -116.14172 | 30898 ft | 568 kts | 49° |
| 2026-05-04 20:29 | 35.28186 | -116.06974 | 30895 ft | 568 kts | 49° |
| 2026-05-04 20:29 | 35.33426 | -115.99864 | 30899 ft | 565 kts | 49° |
| 2026-05-04 20:30 | 35.38735 | -115.92645 | 30916 ft | 570 kts | 49° |
| 2026-05-04 20:30 | 35.43989 | -115.85485 | 30930 ft | 565 kts | 49° |
| 2026-05-04 20:31 | 35.49238 | -115.78316 | 30931 ft | 567 kts | 48° |
| 2026-05-04 20:31 | 35.54519 | -115.71090 | 30930 ft | 569 kts | 49° |
| 2026-05-04 20:32 | 35.59787 | -115.63865 | 30929 ft | 567 kts | 49° |
| 2026-05-04 20:32 | 35.65015 | -115.56679 | 30936 ft | 568 kts | 49° |
| 2026-05-04 20:33 | 35.70258 | -115.49457 | 30935 ft | 567 kts | 49° |
| 2026-05-04 20:33 | 35.75564 | -115.42132 | 30999 ft | 585 kts | 48° |
| 2026-05-04 20:34 | 35.81052 | -115.34536 | 31067 ft | 605 kts | 49° |
| 2026-05-04 20:34 | 35.83897 | -115.30593 | 31263 ft | 611 kts | 49° |
| 2026-05-04 20:34 | 35.86693 | -115.26714 | 31799 ft | 608 kts | 49° |
| 2026-05-04 20:35 | 35.89504 | -115.22807 | 32534 ft | 602 kts | 49° |
| 2026-05-04 20:35 | 35.92254 | -115.18983 | 33160 ft | 599 kts | 48° |
| 2026-05-04 20:35 | 35.95019 | -115.15132 | 33586 ft | 599 kts | 49° |
| 2026-05-04 20:35 | 35.97766 | -115.11303 | 34024 ft | 599 kts | 49° |
| 2026-05-04 20:36 | 36.00538 | -115.07433 | 34442 ft | 600 kts | 47° |
| 2026-05-04 20:36 | 36.03282 | -115.03599 | 34864 ft | 599 kts | 48° |
| 2026-05-04 20:36 | 36.06092 | -114.99668 | 35254 ft | 599 kts | 48° |
| 2026-05-04 20:36 | 36.08821 | -114.95846 | 35665 ft | 598 kts | 47° |
| 2026-05-04 20:37 | 36.11616 | -114.91927 | 36084 ft | 596 kts | 47° |
| 2026-05-04 20:37 | 36.14382 | -114.88037 | 36299 ft | 598 kts | 48° |
| 2026-05-04 20:37 | 36.18928 | -114.79595 | 36556 ft | 603 kts | 66° |
| 2026-05-04 20:38 | 36.20581 | -114.74852 | 36867 ft | 600 kts | 70° |
| 2026-05-04 20:38 | 36.22084 | -114.70033 | 36881 ft | 602 kts | 71° |
| 2026-05-04 20:38 | 36.25030 | -114.60408 | 36889 ft | 600 kts | 71° |
| 2026-05-04 20:39 | 36.27966 | -114.50767 | 36896 ft | 599 kts | 72° |
| 2026-05-04 20:39 | 36.30899 | -114.41098 | 36916 ft | 604 kts | 71° |
| 2026-05-04 20:40 | 36.33833 | -114.31390 | 36888 ft | 599 kts | 71° |
| 2026-05-04 20:40 | 36.36752 | -114.21702 | 36903 ft | 602 kts | 72° |
| 2026-05-04 20:41 | 36.39670 | -114.11974 | 36893 ft | 602 kts | 71° |
| 2026-05-04 20:41 | 36.42569 | -114.02280 | 36909 ft | 602 kts | 71° |
| 2026-05-04 20:42 | 36.45461 | -113.92578 | 36925 ft | 597 kts | 71° |
| 2026-05-04 20:42 | 36.48332 | -113.82906 | 36954 ft | 601 kts | 70° |
| 2026-05-04 20:43 | 36.51186 | -113.73264 | 36972 ft | 597 kts | 71° |
| 2026-05-04 20:43 | 36.54044 | -113.63574 | 36995 ft | 601 kts | 70° |
| 2026-05-04 20:44 | 36.56907 | -113.53835 | 37002 ft | 596 kts | 70° |
| 2026-05-04 20:44 | 36.59749 | -113.44129 | 37021 ft | 599 kts | 71° |
| 2026-05-04 20:45 | 36.62599 | -113.34364 | 37019 ft | 598 kts | 72° |
| 2026-05-04 20:45 | 36.65374 | -113.24807 | 37001 ft | 595 kts | 70° |
| 2026-05-04 20:46 | 36.68169 | -113.15148 | 37025 ft | 599 kts | 71° |
| 2026-05-04 20:46 | 36.70992 | -113.05357 | 37021 ft | 597 kts | 70° |
| 2026-05-04 20:47 | 36.73763 | -112.95710 | 37029 ft | 597 kts | 70° |
| 2026-05-04 20:47 | 36.76557 | -112.85952 | 37015 ft | 597 kts | 71° |
| 2026-05-04 20:48 | 36.79322 | -112.76260 | 37019 ft | 597 kts | 71° |
| 2026-05-04 20:48 | 36.82090 | -112.66520 | 37029 ft | 594 kts | 71° |
| 2026-05-04 20:49 | 36.84850 | -112.56776 | 37030 ft | 595 kts | 71° |
| 2026-05-04 20:49 | 36.87577 | -112.47115 | 37045 ft | 595 kts | 70° |
| 2026-05-04 20:50 | 36.90311 | -112.37375 | 37040 ft | 596 kts | 71° |
| 2026-05-04 20:50 | 36.93040 | -112.27626 | 37027 ft | 592 kts | 71° |
| 2026-05-04 20:51 | 36.95760 | -112.17897 | 37023 ft | 594 kts | 71° |
| 2026-05-04 20:51 | 36.98459 | -112.08205 | 37018 ft | 592 kts | 70° |
| 2026-05-04 20:52 | 37.01140 | -111.98546 | 37022 ft | 593 kts | 70° |
| 2026-05-04 20:52 | 37.03854 | -111.88731 | 37027 ft | 593 kts | 70° |
| 2026-05-04 20:53 | 37.06522 | -111.79045 | 37030 ft | 592 kts | 71° |
| 2026-05-04 20:53 | 37.09209 | -111.69255 | 37027 ft | 591 kts | 71° |
| 2026-05-04 20:54 | 37.11883 | -111.59475 | 37037 ft | 594 kts | 70° |
| 2026-05-04 20:54 | 37.14544 | -111.49706 | 37031 ft | 589 kts | 70° |
| 2026-05-04 20:55 | 37.17205 | -111.39902 | 37030 ft | 592 kts | 69° |
| 2026-05-04 20:55 | 37.19815 | -111.30254 | 37004 ft | 591 kts | 71° |
| 2026-05-04 20:56 | 37.22470 | -111.20395 | 36999 ft | 591 kts | 71° |
| 2026-05-04 20:56 | 37.25085 | -111.10644 | 37001 ft | 588 kts | 72° |
| 2026-05-04 20:57 | 37.27702 | -111.00843 | 37015 ft | 592 kts | 70° |
| 2026-05-04 20:57 | 37.30302 | -110.91074 | 37016 ft | 588 kts | 71° |
| 2026-05-04 20:58 | 37.32892 | -110.81304 | 37018 ft | 591 kts | 71° |
| 2026-05-04 20:58 | 37.35457 | -110.71590 | 37012 ft | 589 kts | 71° |
| 2026-05-04 20:59 | 37.38035 | -110.61792 | 37019 ft | 591 kts | 71° |
| 2026-05-04 20:59 | 37.40591 | -110.52038 | 37024 ft | 588 kts | 71° |
| 2026-05-04 21:00 | 37.43152 | -110.42230 | 37040 ft | 592 kts | 71° |
| 2026-05-04 21:00 | 37.45707 | -110.32405 | 37029 ft | 593 kts | 71° |
| 2026-05-04 21:01 | 37.48246 | -110.22607 | 37040 ft | 591 kts | 71° |
| 2026-05-04 21:01 | 37.50799 | -110.12713 | 37035 ft | 593 kts | 70° |
| 2026-05-04 21:02 | 37.53312 | -110.02937 | 37038 ft | 590 kts | 71° |
| 2026-05-04 21:02 | 37.55829 | -109.93110 | 37055 ft | 592 kts | 71° |
| 2026-05-04 21:03 | 37.58367 | -109.83157 | 37063 ft | 594 kts | 71° |
| 2026-05-04 21:03 | 37.60907 | -109.73158 | 37071 ft | 591 kts | 70° |
| 2026-05-04 21:04 | 37.63402 | -109.63300 | 37067 ft | 593 kts | 70° |
| 2026-05-04 21:04 | 37.65897 | -109.53400 | 37062 ft | 591 kts | 71° |
| 2026-05-04 21:05 | 37.68375 | -109.43527 | 37064 ft | 591 kts | 70° |
| 2026-05-04 21:05 | 37.70861 | -109.33588 | 37069 ft | 591 kts | 71° |
| 2026-05-04 21:06 | 37.73312 | -109.23741 | 37073 ft | 589 kts | 70° |
| 2026-05-04 21:06 | 37.75797 | -109.13725 | 37079 ft | 592 kts | 72° |
| 2026-05-04 21:07 | 37.78263 | -109.03742 | 37070 ft | 588 kts | 72° |
| 2026-05-04 21:07 | 37.80691 | -108.93870 | 37080 ft | 587 kts | 71° |
| 2026-05-04 21:08 | 37.83398 | -108.84099 | 37096 ft | 588 kts | 66° |
| 2026-05-04 21:08 | 37.86261 | -108.74384 | 37116 ft | 586 kts | 67° |
| 2026-05-04 21:09 | 37.89098 | -108.64673 | 37131 ft | 590 kts | 66° |
| 2026-05-04 21:09 | 37.91935 | -108.54879 | 37139 ft | 588 kts | 66° |
| 2026-05-04 21:10 | 37.94754 | -108.45097 | 37175 ft | 589 kts | 66° |
| 2026-05-04 21:10 | 37.97562 | -108.35304 | 37191 ft | 591 kts | 67° |
| 2026-05-04 21:11 | 38.00330 | -108.25605 | 37173 ft | 589 kts | 67° |
| 2026-05-04 21:11 | 38.03115 | -108.15809 | 37191 ft | 591 kts | 67° |
| 2026-05-04 21:12 | 38.05892 | -108.06001 | 37176 ft | 591 kts | 67° |
| 2026-05-04 21:12 | 38.08649 | -107.96224 | 37232 ft | 594 kts | 67° |
| 2026-05-04 21:13 | 38.10043 | -107.91270 | 37447 ft | 596 kts | 66° |
| 2026-05-04 21:13 | 38.11413 | -107.86388 | 37743 ft | 595 kts | 66° |
| 2026-05-04 21:13 | 38.12816 | -107.81378 | 38109 ft | 593 kts | 67° |
| 2026-05-04 21:13 | 38.14204 | -107.76417 | 38314 ft | 595 kts | 67° |
| 2026-05-04 21:14 | 38.15589 | -107.71452 | 38562 ft | 594 kts | 66° |
| 2026-05-04 21:14 | 38.16973 | -107.66483 | 38912 ft | 592 kts | 65° |
| 2026-05-04 21:14 | 38.18327 | -107.61612 | 39120 ft | 592 kts | 66° |
| 2026-05-04 21:14 | 38.19701 | -107.56661 | 39201 ft | 593 kts | 65° |
| 2026-05-04 21:15 | 38.22455 | -107.46716 | 39233 ft | 595 kts | 66° |
| 2026-05-04 21:15 | 38.25196 | -107.36768 | 39253 ft | 592 kts | 65° |
| 2026-05-04 21:16 | 38.27932 | -107.26810 | 39244 ft | 595 kts | 67° |
| 2026-05-04 21:16 | 38.30635 | -107.16928 | 39265 ft | 596 kts | 65° |
| 2026-05-04 21:17 | 38.33368 | -107.06902 | 39273 ft | 597 kts | 65° |
| 2026-05-04 21:17 | 38.36071 | -106.96943 | 39260 ft | 597 kts | 67° |
| 2026-05-04 21:18 | 38.38780 | -106.86927 | 39215 ft | 599 kts | 66° |
| 2026-05-04 21:18 | 38.41464 | -106.76962 | 39225 ft | 596 kts | 66° |
| 2026-05-04 21:19 | 38.44158 | -106.66918 | 39239 ft | 594 kts | 65° |
| 2026-05-04 21:19 | 38.46815 | -106.56981 | 39222 ft | 596 kts | 66° |
| 2026-05-04 21:20 | 38.49490 | -106.46937 | 39221 ft | 597 kts | 66° |
| 2026-05-04 21:20 | 38.52143 | -106.36928 | 39190 ft | 594 kts | 67° |
| 2026-05-04 21:21 | 38.54800 | -106.26873 | 39142 ft | 597 kts | 68° |
| 2026-05-04 21:21 | 38.57457 | -106.16774 | 39136 ft | 599 kts | 68° |
| 2026-05-04 21:22 | 38.60094 | -106.06704 | 39073 ft | 593 kts | 66° |
| 2026-05-04 21:22 | 38.62705 | -105.96703 | 39049 ft | 596 kts | 68° |
| 2026-05-04 21:23 | 38.65335 | -105.86586 | 39128 ft | 597 kts | 67° |
| 2026-05-04 21:23 | 38.67936 | -105.76537 | 39135 ft | 596 kts | 66° |
| 2026-05-04 21:24 | 38.70524 | -105.66503 | 39144 ft | 599 kts | 67° |
| 2026-05-04 21:24 | 38.73135 | -105.56339 | 39136 ft | 601 kts | 68° |
| 2026-05-04 21:25 | 38.75712 | -105.46259 | 39133 ft | 600 kts | 66° |
| 2026-05-04 21:25 | 38.78311 | -105.36059 | 39142 ft | 603 kts | 67° |
| 2026-05-04 21:26 | 38.80885 | -105.25909 | 39110 ft | 601 kts | 67° |
| 2026-05-04 21:26 | 38.83472 | -105.15669 | 39094 ft | 603 kts | 68° |
| 2026-05-04 21:27 | 38.86054 | -105.05398 | 39052 ft | 600 kts | 66° |
| 2026-05-04 21:27 | 38.88617 | -104.95168 | 39047 ft | 603 kts | 68° |
| 2026-05-04 21:28 | 38.91150 | -104.85014 | 39013 ft | 603 kts | 66° |
| 2026-05-04 21:28 | 38.93688 | -104.74799 | 38990 ft | 604 kts | 67° |
| 2026-05-04 21:29 | 38.96230 | -104.64524 | 38997 ft | 606 kts | 66° |
| 2026-05-04 21:29 | 38.98751 | -104.54279 | 39008 ft | 602 kts | 66° |
| 2026-05-04 21:30 | 39.01284 | -104.43954 | 39012 ft | 602 kts | 65° |
| 2026-05-04 21:30 | 39.03786 | -104.33714 | 38990 ft | 606 kts | 69° |
| 2026-05-04 21:31 | 39.07570 | -104.18127 | 38971 ft | 605 kts | 67° |
| 2026-05-04 21:32 | 39.10064 | -104.07803 | 38954 ft | 604 kts | 68° |
| 2026-05-04 21:32 | 39.12540 | -103.97511 | 38941 ft | 607 kts | 68° |
| 2026-05-04 21:33 | 39.15019 | -103.87152 | 38930 ft | 602 kts | 66° |
| 2026-05-04 21:33 | 39.17461 | -103.76905 | 38917 ft | 601 kts | 67° |
| 2026-05-04 21:34 | 39.19903 | -103.66620 | 38917 ft | 602 kts | 67° |
| 2026-05-04 21:34 | 39.22342 | -103.56303 | 38920 ft | 602 kts | 68° |
| 2026-05-04 21:35 | 39.24769 | -103.45988 | 38918 ft | 604 kts | 68° |
| 2026-05-04 21:35 | 39.27197 | -103.35620 | 38923 ft | 603 kts | 67° |
| 2026-05-04 21:36 | 39.29608 | -103.25279 | 38886 ft | 603 kts | 69° |
| 2026-05-04 21:36 | 39.31998 | -103.14977 | 38884 ft | 598 kts | 69° |
| 2026-05-04 21:37 | 39.34366 | -103.04732 | 38879 ft | 599 kts | 68° |
| 2026-05-04 21:37 | 39.36741 | -102.94415 | 38876 ft | 602 kts | 69° |
| 2026-05-04 21:38 | 39.39111 | -102.84060 | 38864 ft | 597 kts | 69° |
| 2026-05-04 21:38 | 39.41467 | -102.73725 | 38865 ft | 598 kts | 68° |
| 2026-05-04 21:39 | 39.43788 | -102.63498 | 38866 ft | 595 kts | 68° |
| 2026-05-04 21:39 | 39.46099 | -102.53266 | 38851 ft | 595 kts | 68° |
| 2026-05-04 21:40 | 39.48415 | -102.42972 | 38844 ft | 594 kts | 68° |
| 2026-05-04 21:40 | 39.50701 | -102.32761 | 38821 ft | 594 kts | 68° |
| 2026-05-04 21:41 | 39.52988 | -102.22496 | 38813 ft | 593 kts | 69° |
| 2026-05-04 21:41 | 39.55267 | -102.12225 | 38801 ft | 595 kts | 69° |
| 2026-05-04 21:42 | 39.57516 | -102.02034 | 38802 ft | 593 kts | 69° |
| 2026-05-04 21:42 | 39.59785 | -101.91716 | 38796 ft | 595 kts | 69° |
| 2026-05-04 21:43 | 39.62017 | -101.81504 | 38804 ft | 590 kts | 69° |
| 2026-05-04 21:43 | 39.64247 | -101.71262 | 38801 ft | 590 kts | 68° |
| 2026-05-04 21:44 | 39.66456 | -101.61076 | 38788 ft | 591 kts | 69° |
| 2026-05-04 21:44 | 39.68667 | -101.50823 | 38794 ft | 592 kts | 68° |
| 2026-05-04 21:45 | 39.70879 | -101.40517 | 38797 ft | 588 kts | 68° |
| 2026-05-04 21:45 | 39.73058 | -101.30318 | 38765 ft | 588 kts | 69° |
| 2026-05-04 21:46 | 39.75236 | -101.20081 | 38770 ft | 589 kts | 70° |
| 2026-05-04 21:46 | 39.77393 | -101.09883 | 38780 ft | 586 kts | 69° |
| 2026-05-04 21:47 | 39.79539 | -100.99693 | 38786 ft | 587 kts | 69° |
| 2026-05-04 21:47 | 39.81688 | -100.89451 | 38778 ft | 587 kts | 70° |
| 2026-05-04 21:48 | 39.83820 | -100.79227 | 38768 ft | 588 kts | 69° |
| 2026-05-04 21:48 | 39.85948 | -100.68975 | 38762 ft | 584 kts | 70° |
| 2026-05-04 21:49 | 39.88044 | -100.58829 | 38766 ft | 586 kts | 69° |
| 2026-05-04 21:49 | 39.90152 | -100.48576 | 38767 ft | 585 kts | 69° |
| 2026-05-04 21:50 | 39.92232 | -100.38409 | 38767 ft | 582 kts | 69° |
| 2026-05-04 21:50 | 39.94320 | -100.28158 | 38736 ft | 582 kts | 70° |
| 2026-05-04 21:51 | 39.96375 | -100.18004 | 38746 ft | 578 kts | 70° |
| 2026-05-04 21:51 | 39.98419 | -100.07875 | 38735 ft | 581 kts | 69° |
| 2026-05-04 21:52 | 40.00441 | -99.97717 | 38721 ft | 579 kts | 70° |
| 2026-05-04 21:52 | 40.02420 | -99.87565 | 38712 ft | 581 kts | 70° |
| 2026-05-04 21:53 | 40.04380 | -99.77434 | 38729 ft | 576 kts | 70° |
| 2026-05-04 21:53 | 40.06329 | -99.67323 | 38730 ft | 578 kts | 70° |
| 2026-05-04 21:54 | 40.08276 | -99.57163 | 38723 ft | 579 kts | 70° |
| 2026-05-04 21:54 | 40.10208 | -99.47024 | 38738 ft | 574 kts | 70° |
| 2026-05-04 21:55 | 40.12116 | -99.36960 | 38750 ft | 574 kts | 70° |
| 2026-05-04 21:55 | 40.14036 | -99.26789 | 38731 ft | 574 kts | 71° |
| 2026-05-04 21:56 | 40.15936 | -99.16669 | 38734 ft | 575 kts | 70° |
| 2026-05-04 21:56 | 40.17813 | -99.06612 | 38728 ft | 573 kts | 70° |
| 2026-05-04 21:57 | 40.19706 | -98.96426 | 38729 ft | 572 kts | 71° |
| 2026-05-04 21:57 | 40.21557 | -98.86407 | 38736 ft | 572 kts | 70° |
| 2026-05-04 21:58 | 40.23407 | -98.76343 | 38749 ft | 570 kts | 71° |
| 2026-05-04 21:58 | 40.25261 | -98.66207 | 38749 ft | 574 kts | 70° |
| 2026-05-04 21:59 | 40.27091 | -98.56141 | 38752 ft | 568 kts | 70° |
| 2026-05-04 21:59 | 40.28920 | -98.46035 | 38755 ft | 572 kts | 70° |
| 2026-05-04 22:00 | 40.30742 | -98.35909 | 38753 ft | 569 kts | 70° |
| 2026-05-04 22:00 | 40.32536 | -98.25882 | 38724 ft | 567 kts | 71° |
| 2026-05-04 22:01 | 40.34333 | -98.15793 | 38671 ft | 570 kts | 72° |
| 2026-05-04 22:01 | 40.36111 | -98.05752 | 38716 ft | 568 kts | 71° |
| 2026-05-04 22:02 | 40.37874 | -97.95734 | 38710 ft | 565 kts | 72° |
| 2026-05-04 22:02 | 40.39639 | -97.85667 | 38750 ft | 570 kts | 71° |
| 2026-05-04 22:03 | 40.41394 | -97.75584 | 38738 ft | 566 kts | 71° |
| 2026-05-04 22:03 | 40.43130 | -97.65563 | 38738 ft | 564 kts | 71° |
| 2026-05-04 22:04 | 40.44865 | -97.55495 | 38731 ft | 565 kts | 71° |
| 2026-05-04 22:04 | 40.46574 | -97.45519 | 38716 ft | 565 kts | 72° |
| 2026-05-04 22:05 | 40.48286 | -97.35468 | 38728 ft | 563 kts | 72° |
| 2026-05-04 22:05 | 40.49996 | -97.25381 | 38709 ft | 563 kts | 73° |
| 2026-05-04 22:06 | 40.51669 | -97.15443 | 38702 ft | 559 kts | 72° |
| 2026-05-04 22:06 | 40.53334 | -97.05507 | 38705 ft | 559 kts | 73° |
| 2026-05-04 22:07 | 40.54997 | -96.95531 | 38706 ft | 559 kts | 72° |
| 2026-05-04 22:07 | 40.56644 | -96.85579 | 38707 ft | 556 kts | 72° |
| 2026-05-04 22:08 | 40.58281 | -96.75647 | 38712 ft | 559 kts | 72° |
| 2026-05-04 22:08 | 40.59911 | -96.65693 | 38716 ft | 557 kts | 72° |
| 2026-05-04 22:09 | 40.61529 | -96.55757 | 38717 ft | 555 kts | 73° |
| 2026-05-04 22:09 | 40.63126 | -96.45892 | 38718 ft | 556 kts | 73° |
| 2026-05-04 22:10 | 40.64724 | -96.35970 | 38712 ft | 554 kts | 72° |
| 2026-05-04 22:10 | 40.66308 | -96.26068 | 38694 ft | 553 kts | 73° |
| 2026-05-04 22:11 | 40.67884 | -96.16165 | 38693 ft | 554 kts | 74° |
| 2026-05-04 22:11 | 40.69451 | -96.06265 | 38688 ft | 554 kts | 74° |
| 2026-05-04 22:12 | 40.71012 | -95.96331 | 38686 ft | 553 kts | 73° |
| 2026-05-04 22:12 | 40.72551 | -95.86489 | 38682 ft | 551 kts | 73° |
| 2026-05-04 22:13 | 40.74078 | -95.76662 | 38677 ft | 548 kts | 73° |
| 2026-05-04 22:13 | 40.75608 | -95.66760 | 38678 ft | 549 kts | 74° |
| 2026-05-04 22:14 | 40.77108 | -95.56990 | 38682 ft | 546 kts | 74° |
| 2026-05-04 22:14 | 40.78605 | -95.47183 | 38686 ft | 547 kts | 73° |
| 2026-05-04 22:15 | 40.80092 | -95.37388 | 38691 ft | 545 kts | 74° |
| 2026-05-04 22:15 | 40.81563 | -95.27633 | 38664 ft | 545 kts | 75° |
| 2026-05-04 22:16 | 40.83037 | -95.17802 | 38670 ft | 544 kts | 75° |
| 2026-05-04 22:16 | 40.84497 | -95.08004 | 38679 ft | 544 kts | 75° |
| 2026-05-04 22:17 | 40.85950 | -94.98194 | 38675 ft | 543 kts | 75° |
| 2026-05-04 22:17 | 40.87383 | -94.88458 | 38670 ft | 543 kts | 75° |
| 2026-05-04 22:18 | 40.88810 | -94.78696 | 38683 ft | 540 kts | 75° |
| 2026-05-04 22:18 | 40.90222 | -94.68985 | 38687 ft | 540 kts | 75° |
| 2026-05-04 22:19 | 40.91632 | -94.59228 | 38680 ft | 539 kts | 75° |
| 2026-05-04 22:19 | 40.93028 | -94.49506 | 38677 ft | 538 kts | 75° |
| 2026-05-04 22:20 | 40.94411 | -94.39805 | 38682 ft | 536 kts | 75° |
| 2026-05-04 22:20 | 40.95784 | -94.30125 | 38671 ft | 537 kts | 76° |
| 2026-05-04 22:21 | 40.97145 | -94.20467 | 38668 ft | 536 kts | 76° |
| 2026-05-04 22:21 | 40.98501 | -94.10780 | 38673 ft | 534 kts | 76° |
| 2026-05-04 22:22 | 40.99844 | -94.01120 | 38675 ft | 534 kts | 76° |
| 2026-05-04 22:22 | 41.01656 | -93.91677 | 38644 ft | 528 kts | 68° |
| 2026-05-04 22:23 | 41.03870 | -93.82439 | 38643 ft | 528 kts | 68° |
| 2026-05-04 22:23 | 41.06057 | -93.73100 | 38664 ft | 528 kts | 68° |
| 2026-05-04 22:24 | 41.08189 | -93.63836 | 38660 ft | 526 kts | 69° |
| 2026-05-04 22:24 | 41.10292 | -93.54594 | 38654 ft | 527 kts | 69° |
| 2026-05-04 22:25 | 41.12396 | -93.45269 | 38668 ft | 526 kts | 69° |
| 2026-05-04 22:25 | 41.14463 | -93.36043 | 38654 ft | 523 kts | 69° |
| 2026-05-04 22:26 | 41.16494 | -93.26940 | 38648 ft | 525 kts | 70° |
| 2026-05-04 22:26 | 41.18553 | -93.17656 | 38644 ft | 523 kts | 70° |
| 2026-05-04 22:27 | 41.20601 | -93.08379 | 38648 ft | 521 kts | 69° |
| 2026-05-04 22:27 | 41.22624 | -92.99178 | 38651 ft | 524 kts | 70° |
| 2026-05-04 22:28 | 41.24659 | -92.89879 | 38647 ft | 523 kts | 70° |
| 2026-05-04 22:28 | 41.26670 | -92.80648 | 38626 ft | 521 kts | 70° |
| 2026-05-04 22:29 | 41.28682 | -92.71375 | 38637 ft | 522 kts | 70° |
| 2026-05-04 22:29 | 41.30678 | -92.62134 | 38646 ft | 520 kts | 70° |
| 2026-05-04 22:30 | 41.32659 | -92.52922 | 38643 ft | 519 kts | 70° |
| 2026-05-04 22:30 | 41.34627 | -92.43734 | 38654 ft | 518 kts | 70° |
| 2026-05-04 22:31 | 41.36583 | -92.34560 | 38641 ft | 517 kts | 71° |
| 2026-05-04 22:31 | 41.38538 | -92.25350 | 38627 ft | 517 kts | 71° |
| 2026-05-04 22:32 | 41.40478 | -92.16176 | 38620 ft | 517 kts | 71° |
| 2026-05-04 22:32 | 41.42404 | -92.07024 | 38618 ft | 516 kts | 71° |
| 2026-05-04 22:33 | 41.44302 | -91.97968 | 38623 ft | 518 kts | 71° |
| 2026-05-04 22:33 | 41.46221 | -91.88765 | 38647 ft | 516 kts | 71° |
| 2026-05-04 22:34 | 41.48127 | -91.79592 | 38631 ft | 517 kts | 71° |
| 2026-05-04 22:34 | 41.50026 | -91.70409 | 38622 ft | 515 kts | 71° |
| 2026-05-04 22:35 | 41.51880 | -91.61221 | 38627 ft | 516 kts | 75° |
| 2026-05-04 22:35 | 41.53312 | -91.51836 | 38624 ft | 518 kts | 76° |
| 2026-05-04 22:36 | 41.54691 | -91.42474 | 38629 ft | 515 kts | 76° |
| 2026-05-04 22:36 | 41.56066 | -91.33093 | 38625 ft | 516 kts | 77° |
| 2026-05-04 22:37 | 41.57410 | -91.23878 | 38603 ft | 516 kts | 77° |
| 2026-05-04 22:37 | 41.58765 | -91.14528 | 38606 ft | 515 kts | 77° |
| 2026-05-04 22:38 | 41.60119 | -91.05132 | 38594 ft | 515 kts | 77° |
| 2026-05-04 22:38 | 41.61459 | -90.95783 | 38600 ft | 516 kts | 77° |
| 2026-05-04 22:39 | 41.62803 | -90.86346 | 38602 ft | 516 kts | 77° |
| 2026-05-04 22:39 | 41.64131 | -90.76957 | 38612 ft | 515 kts | 77° |
| 2026-05-04 22:40 | 41.65450 | -90.67580 | 38615 ft | 517 kts | 77° |
| 2026-05-04 22:40 | 41.66763 | -90.58186 | 38605 ft | 516 kts | 77° |
| 2026-05-04 22:41 | 41.68072 | -90.48766 | 38606 ft | 517 kts | 77° |
| 2026-05-04 22:41 | 41.69378 | -90.39304 | 38607 ft | 517 kts | 77° |
| 2026-05-04 22:42 | 41.70674 | -90.29858 | 38589 ft | 517 kts | 78° |
| 2026-05-04 22:42 | 41.71946 | -90.20526 | 38590 ft | 518 kts | 78° |
| 2026-05-04 22:43 | 41.73040 | -90.12446 | 38584 ft | 517 kts | 78° |
| 2026-05-04 22:43 | 41.74319 | -90.02951 | 38591 ft | 519 kts | 78° |
| 2026-05-04 22:44 | 41.75579 | -89.93529 | 38593 ft | 517 kts | 78° |
| 2026-05-04 22:44 | 41.76834 | -89.84096 | 38596 ft | 516 kts | 78° |
| 2026-05-04 22:45 | 41.78086 | -89.74616 | 38607 ft | 516 kts | 78° |
| 2026-05-04 22:45 | 41.79941 | -89.60455 | 38606 ft | 516 kts | 78° |
| 2026-05-04 22:46 | 41.81160 | -89.51068 | 38607 ft | 512 kts | 78° |
| 2026-05-04 22:46 | 41.82369 | -89.41694 | 38596 ft | 512 kts | 78° |
| 2026-05-04 22:47 | 41.83570 | -89.32328 | 38593 ft | 511 kts | 79° |
| 2026-05-04 22:47 | 41.84766 | -89.22935 | 38588 ft | 512 kts | 79° |
| 2026-05-04 22:48 | 41.85944 | -89.13612 | 38609 ft | 509 kts | 79° |
| 2026-05-04 22:48 | 41.87120 | -89.04247 | 38615 ft | 509 kts | 79° |
| 2026-05-04 22:49 | 41.88280 | -88.94949 | 38616 ft | 508 kts | 79° |
| 2026-05-04 22:49 | 41.89443 | -88.85564 | 38601 ft | 512 kts | 79° |
| 2026-05-04 22:50 | 41.90602 | -88.76148 | 38618 ft | 513 kts | 79° |
| 2026-05-04 22:50 | 41.91747 | -88.66771 | 38609 ft | 512 kts | 79° |
| 2026-05-04 22:51 | 41.92897 | -88.57288 | 38629 ft | 514 kts | 79° |
| 2026-05-04 22:51 | 41.94031 | -88.47872 | 38613 ft | 515 kts | 79° |
| 2026-05-04 22:52 | 41.95171 | -88.38345 | 38622 ft | 516 kts | 79° |
| 2026-05-04 22:52 | 41.96298 | -88.28853 | 38653 ft | 517 kts | 80° |
| 2026-05-04 22:53 | 41.97426 | -88.19273 | 38627 ft | 519 kts | 81° |
| 2026-05-04 22:53 | 41.98542 | -88.09731 | 38591 ft | 521 kts | 80° |
| 2026-05-04 22:54 | 41.99656 | -88.00139 | 38604 ft | 521 kts | 81° |
| 2026-05-04 22:54 | 42.00764 | -87.90514 | 38584 ft | 523 kts | 81° |
| 2026-05-04 22:55 | 42.01865 | -87.80887 | 38583 ft | 518 kts | 80° |
| 2026-05-04 22:55 | 42.02946 | -87.71365 | 38601 ft | 520 kts | 81° |
| 2026-05-04 22:56 | 42.04022 | -87.61805 | 38628 ft | 518 kts | 80° |
| 2026-05-04 22:56 | 42.05098 | -87.52175 | 38574 ft | 520 kts | 81° |
| 2026-05-04 22:57 | 42.06155 | -87.42638 | 38589 ft | 514 kts | 80° |
| 2026-05-04 22:57 | 42.07210 | -87.33056 | 38584 ft | 518 kts | 81° |
| 2026-05-04 22:58 | 42.08252 | -87.23507 | 38576 ft | 514 kts | 81° |
| 2026-05-04 22:58 | 42.09282 | -87.13989 | 38609 ft | 513 kts | 81° |
| 2026-05-04 22:59 | 42.10308 | -87.04440 | 38603 ft | 511 kts | 81° |
| 2026-05-04 22:59 | 42.11317 | -86.94973 | 38618 ft | 513 kts | 81° |
| 2026-05-04 23:00 | 42.12324 | -86.85435 | 38605 ft | 513 kts | 81° |
| 2026-05-04 23:00 | 42.13316 | -86.75978 | 38604 ft | 514 kts | 81° |
| 2026-05-04 23:01 | 42.14310 | -86.66422 | 38593 ft | 515 kts | 81° |
| 2026-05-04 23:01 | 42.15287 | -86.56941 | 38607 ft | 513 kts | 81° |
| 2026-05-04 23:02 | 42.16264 | -86.47388 | 38612 ft | 514 kts | 81° |
| 2026-05-04 23:02 | 42.17223 | -86.37933 | 38619 ft | 515 kts | 81° |
| 2026-05-04 23:03 | 42.18186 | -86.28350 | 38614 ft | 514 kts | 82° |
| 2026-05-04 23:03 | 42.19138 | -86.18802 | 38605 ft | 516 kts | 82° |
| 2026-05-04 23:04 | 42.20087 | -86.09201 | 38595 ft | 515 kts | 82° |
| 2026-05-04 23:04 | 42.21023 | -85.99641 | 38602 ft | 515 kts | 81° |
| 2026-05-04 23:05 | 42.21950 | -85.90093 | 38606 ft | 514 kts | 82° |
| 2026-05-04 23:05 | 42.22864 | -85.80597 | 38610 ft | 515 kts | 82° |
| 2026-05-04 23:06 | 42.23772 | -85.71075 | 38618 ft | 514 kts | 81° |
| 2026-05-04 23:06 | 42.24676 | -85.61516 | 38619 ft | 515 kts | 81° |
| 2026-05-04 23:07 | 42.25572 | -85.51957 | 38622 ft | 514 kts | 81° |
| 2026-05-04 23:07 | 42.26461 | -85.42382 | 38614 ft | 515 kts | 82° |
| 2026-05-04 23:08 | 42.27340 | -85.32822 | 38607 ft | 516 kts | 82° |
| 2026-05-04 23:08 | 42.28196 | -85.23427 | 38607 ft | 515 kts | 82° |